メインページ
METAR-TAF:

METAR-TAF

空港 :

Mitiga International Airport

トリポリ, リビア

緯度: 32-54N, 経度: 13-17E, 海抜: 11m

現時点の気象観測

当レポートは43分前の17:50(UTC)に作成
の風 11kt
気温 28°C
湿度 70%
気圧 1014 hPa
視程: 7000m
高度2500ftの雲はほとんどない
高度6000ftの雲は散在している

METAR: HLLM 151750Z 09011KT 7000 FEW025 SCT060 28/22 Q1014

時間: 20:33 (18:33 UTC)

予報

当レポートは31時間33分前の11:00(UTC)に作成
予報は14日の 12時(UTC)から 15日の 12時(UTC)まで有効
北/北西の風 12kt
視程10km以上
高度3000ftの雲は散在している
高度8000ftの雲は散在している
14日の 20時(UTC)から 14日の 22時(UTC)まで徐々に
変向風 2kt

TAF: HLLM 141100Z 1412/1512 34012KT 9999 SCT030 SCT080 BECMG 1420/1422 VRB02KT

4,000以上の空港の気象観測と天気予報(METAR報とTAF報)

利用可能な観測所は地図上に黄色い丸と赤い丸で示す。

丸の上にカーソルを重ねると観測所名を参照できる。

次にクリックすると気象観測と天気予報を参照できる。

マップの切り替え:黒色「×」印の緑ボタンをクリックして拡大、「-」印の緑ボタンをクリックして縮小、緑色の三角印をクリックして隣りの地図に切り替え


METAR-TAF: